Time;durP1;ratioP1;P1;durP2;ratioP2;P2;SDS_P1;SDS_P2;PMS_P1;PMS_P2;Temp;Humidity;BMP_temperature;BMP_pressure;BME280_temperature;BME280_humidity;BME280_pressure;Samples;Min_cycle;Max_cycle;Signal;HPM_P1;HPM_P2
2024/01/14 00:00:08;;;;;;;1999.90;999.90;;;4.30;99.90;;;;;;5069409;28;20032;-82
2024/01/14 00:02:35;;;;;;;1999.90;999.90;;;4.40;99.90;;;;;;5067109;28;20032;-81
2024/01/14 00:05:01;;;;;;;1999.90;999.90;;;4.40;99.90;;;;;;5048814;28;20401;-81
2024/01/14 00:07:27;;;;;;;1999.90;999.90;;;4.40;99.90;;;;;;5065210;28;20123;-81
2024/01/14 00:09:53;;;;;;;1999.90;999.90;;;4.40;99.90;;;;;;5066664;28;20043;-81
2024/01/14 00:12:19;;;;;;;1999.90;999.90;;;4.50;99.90;;;;;;5049411;28;20124;-81
2024/01/14 00:14:44;;;;;;;1999.90;999.90;;;4.50;99.90;;;;;;5055292;28;20041;-82
2024/01/14 00:17:10;;;;;;;1999.90;999.90;;;4.50;99.90;;;;;;5069756;28;20504;-81
2024/01/14 00:19:36;;;;;;;1999.90;999.90;;;4.50;99.90;;;;;;5061074;28;20051;-81
2024/01/14 00:22:02;;;;;;;1999.90;999.90;;;4.50;99.90;;;;;;5063252;28;20041;-81
2024/01/14 00:24:28;;;;;;;1999.90;999.90;;;4.50;99.90;;;;;;5069709;28;20045;-79
2024/01/14 00:26:54;;;;;;;1999.90;999.90;;;5.70;99.90;;;;;;5048705;28;20086;-79
2024/01/14 00:29:20;;;;;;;1999.90;999.90;;;4.50;99.90;;;;;;5051740;28;20084;-81
2024/01/14 00:31:46;;;;;;;1999.90;999.90;;;5.10;99.90;;;;;;5067056;28;20082;-82
2024/01/14 00:34:12;;;;;;;1999.90;999.90;;;4.60;99.90;;;;;;5052594;28;20396;-82
2024/01/14 00:36:39;;;;;;;1999.90;999.90;;;5.00;99.90;;;;;;5050015;28;20123;-81
2024/01/14 00:39:05;;;;;;;1999.90;999.90;;;4.50;99.90;;;;;;5066018;28;20036;-82
2024/01/14 00:41:30;;;;;;;1999.90;999.90;;;4.60;99.90;;;;;;5061826;28;20103;-78
2024/01/14 00:43:56;;;;;;;1999.90;999.90;;;5.50;99.90;;;;;;5047905;28;20086;-78
2024/01/14 00:46:21;;;;;;;1999.90;999.90;;;4.60;99.90;;;;;;5059839;28;20044;-78
2024/01/14 00:48:49;;;;;;;1999.90;999.90;;;4.60;99.90;;;;;;5062187;28;20033;-78
2024/01/14 00:51:15;;;;;;;1999.90;999.90;;;4.60;99.90;;;;;;5066287;28;20033;-81
2024/01/14 00:53:40;;;;;;;1999.90;999.90;;;4.60;99.90;;;;;;5047980;28;20642;-81
2024/01/14 00:56:06;;;;;;;1999.90;999.90;;;4.50;99.90;;;;;;5049850;28;20043;-80
2024/01/14 00:58:32;;;;;;;1999.90;999.90;;;5.10;99.90;;;;;;5068995;28;20036;-81
2024/01/14 01:00:57;;;;;;;1999.90;999.90;;;4.90;99.90;;;;;;5066797;28;20044;-78
2024/01/14 01:03:23;;;;;;;1999.90;999.90;;;4.50;99.90;;;;;;5062806;28;20052;-81
2024/01/14 01:05:50;;;;;;;1999.90;999.90;;;4.60;99.90;;;;;;5068422;28;20064;-81
2024/01/14 01:08:16;;;;;;;1999.90;999.90;;;4.50;99.90;;;;;;5050530;28;20025;-82
2024/01/14 01:10:42;;;;;;;1999.90;999.90;;;5.50;99.90;;;;;;5066496;28;20067;-82
2024/01/14 01:13:07;;;;;;;1999.90;999.90;;;4.50;99.90;;;;;;5048080;28;20043;-81
2024/01/14 01:15:33;;;;;;;1999.90;999.90;;;5.70;99.90;;;;;;5048512;28;20072;-81
2024/01/14 01:18:00;;;;;;;1999.90;999.90;;;4.50;99.90;;;;;;5061822;28;20033;-81
2024/01/14 01:20:25;;;;;;;1999.90;999.90;;;5.60;99.90;;;;;;5069606;28;20037;-80
2024/01/14 01:22:51;;;;;;;1999.90;999.90;;;4.50;99.90;;;;;;5044268;28;20037;-80
2024/01/14 01:25:17;;;;;;;1999.90;999.90;;;5.50;99.90;;;;;;5045713;28;20033;-81
2024/01/14 01:27:42;;;;;;;1999.90;999.90;;;4.50;99.90;;;;;;5070285;28;20063;-80
2024/01/14 01:30:08;;;;;;;1999.90;999.90;;;5.60;99.90;;;;;;5066621;28;20064;-81
2024/01/14 01:32:34;;;;;;;1999.90;999.90;;;5.10;99.90;;;;;;5050655;28;20037;-81
2024/01/14 01:35:00;;;;;;;1999.90;999.90;;;5.10;99.90;;;;;;5067174;28;20043;-80
2024/01/14 01:37:25;;;;;;;1999.90;999.90;;;4.50;99.90;;;;;;5065139;28;20037;-78
2024/01/14 01:39:51;;;;;;;1999.90;999.90;;;4.40;99.90;;;;;;5050253;28;20056;-80
2024/01/14 01:42:17;;;;;;;1999.90;999.90;;;4.80;99.90;;;;;;5071196;28;20078;-81
2024/01/14 01:44:42;;;;;;;1999.90;999.90;;;4.40;99.90;;;;;;5073784;28;20076;-81
2024/01/14 01:47:08;;;;;;;1999.90;999.90;;;4.40;99.90;;;;;;5066283;28;20124;-81
2024/01/14 01:49:34;;;;;;;1999.90;999.90;;;4.40;99.90;;;;;;5049890;28;20048;-81
2024/01/14 01:52:04;;;;;;;1999.90;999.90;;;4.80;99.90;;;;;;5051699;28;20036;-80
2024/01/14 01:54:31;;;;;;;1999.90;999.90;;;4.60;99.90;;;;;;5054427;28;20044;-81
2024/01/14 01:56:57;;;;;;;1999.90;999.90;;;4.20;99.90;;;;;;5051968;28;20032;-81
2024/01/14 01:59:23;;;;;;;1999.90;999.90;;;4.10;99.90;;;;;;5068112;28;20076;-80
2024/01/14 02:01:49;;;;;;;1999.90;999.90;;;4.70;99.90;;;;;;5051730;28;20086;-81
2024/01/14 02:04:16;;;;;;;1999.90;999.90;;;3.40;99.90;;;;;;5058544;28;20101;-81
2024/01/14 02:06:42;;;;;;;1999.90;999.90;;;3.80;99.90;;;;;;5047274;28;20120;-81
2024/01/14 02:09:08;;;;;;;1999.90;999.90;;;3.70;99.90;;;;;;5053867;28;20056;-78
2024/01/14 02:11:35;;;;;;;1999.90;999.90;;;3.70;99.90;;;;;;5048081;28;20068;-81
2024/01/14 02:14:01;;;;;;;1999.90;999.90;;;3.70;99.90;;;;;;5056715;28;20104;-81
2024/01/14 02:16:27;;;;;;;1999.90;999.90;;;3.60;99.90;;;;;;5051986;28;20032;-81
2024/01/14 02:18:52;;;;;;;1999.90;999.90;;;3.60;99.90;;;;;;5051833;28;20130;-81
2024/01/14 02:21:22;;;;;;;1999.90;999.90;;;3.50;99.90;;;;;;5048431;28;20048;-81
2024/01/14 02:23:56;;;;;;;1999.90;999.90;;;3.40;99.90;;;;;;5049821;28;20052;-81
2024/01/14 02:26:22;;;;;;;1999.90;999.90;;;3.30;99.90;;;;;;5052319;28;20570;-81
2024/01/14 02:28:48;;;;;;;1999.90;999.90;;;4.60;99.90;;;;;;5066205;28;20033;-80
2024/01/14 02:31:15;;;;;;;1999.90;999.90;;;3.20;99.90;;;;;;5072328;28;20082;-81
2024/01/14 02:33:41;;;;;;;1999.90;999.90;;;3.80;99.90;;;;;;5071514;28;20075;-81
2024/01/14 02:36:08;;;;;;;1999.90;999.90;;;3.00;99.90;;;;;;5052725;28;20036;-80
2024/01/14 02:38:34;;;;;;;1999.90;999.90;;;3.00;99.90;;;;;;5048313;28;20124;-80
2024/01/14 02:41:00;;;;;;;1999.90;999.90;;;2.90;99.90;;;;;;5067282;28;20455;-81
2024/01/14 02:43:25;;;;;;;1999.90;999.90;;;3.20;99.90;;;;;;5070606;28;20047;-82
2024/01/14 02:45:51;;;;;;;1999.90;999.90;;;2.90;99.90;;;;;;5071861;28;20043;-80
2024/01/14 02:48:17;;;;;;;1999.90;999.90;;;3.00;99.90;;;;;;5051707;28;20091;-80
2024/01/14 02:50:46;;;;;;;1999.90;999.90;;;3.00;99.90;;;;;;5069129;28;20106;-80
2024/01/14 02:53:12;;;;;;;1999.90;999.90;;;3.10;99.90;;;;;;5064876;28;20441;-82
2024/01/14 02:55:38;;;;;;;1999.90;999.90;;;4.20;99.90;;;;;;5069324;28;20119;-81
2024/01/14 02:58:04;;;;;;;1999.90;999.90;;;3.20;99.90;;;;;;5047318;28;20071;-82
2024/01/14 03:00:29;;;;;;;1999.90;999.90;;;3.20;99.90;;;;;;5050739;28;20047;-82
2024/01/14 03:02:55;;;;;;;1999.90;999.90;;;3.30;99.90;;;;;;5051064;28;20044;-81
2024/01/14 03:05:20;;;;;;;1999.90;999.90;;;3.20;99.90;;;;;;5055972;28;20044;-81
2024/01/14 03:07:46;;;;;;;1999.90;999.90;;;3.30;99.90;;;;;;5068839;28;20044;-80
2024/01/14 03:10:14;;;;;;;1999.90;999.90;;;3.30;99.90;;;;;;5048781;28;20050;-80
2024/01/14 03:12:40;;;;;;;1999.90;999.90;;;3.40;99.90;;;;;;5054947;28;20036;-81
2024/01/14 03:15:06;;;;;;;1999.90;999.90;;;4.40;99.90;;;;;;5047695;28;20048;-80
2024/01/14 03:17:32;;;;;;;1999.90;999.90;;;3.40;99.90;;;;;;5051822;28;20128;-80
2024/01/14 03:19:57;;;;;;;1999.90;999.90;;;4.40;99.90;;;;;;5056464;28;20064;-81
2024/01/14 03:22:23;;;;;;;1999.90;999.90;;;4.50;99.90;;;;;;5072832;28;20040;-80
2024/01/14 03:24:49;;;;;;;1999.90;999.90;;;3.40;99.90;;;;;;5068707;28;20095;-80
2024/01/14 03:27:14;;;;;;;1999.90;999.90;;;3.20;99.90;;;;;;5062791;28;20571;-81
2024/01/14 03:29:40;;;;;;;1999.90;999.90;;;3.30;99.90;;;;;;5069057;28;20648;-80
2024/01/14 03:32:05;;;;;;;1999.90;999.90;;;3.30;99.90;;;;;;5069437;28;20512;-81
2024/01/14 03:34:31;;;;;;;1999.90;999.90;;;3.30;99.90;;;;;;5066750;28;20123;-80
2024/01/14 03:36:57;;;;;;;1999.90;999.90;;;3.90;99.90;;;;;;5050101;28;20067;-80
2024/01/14 03:39:22;;;;;;;1999.90;999.90;;;3.40;99.90;;;;;;5054205;28;20037;-81
2024/01/14 03:41:49;;;;;;;1999.90;999.90;;;3.40;99.90;;;;;;5064907;28;20033;-81
2024/01/14 03:44:15;;;;;;;1999.90;999.90;;;3.40;99.90;;;;;;5065372;28;20041;-81
2024/01/14 03:46:41;;;;;;;1999.90;999.90;;;4.40;99.90;;;;;;5048665;28;20680;-81
2024/01/14 03:49:06;;;;;;;1999.90;999.90;;;3.40;99.90;;;;;;5051323;28;20416;-80
2024/01/14 03:51:32;;;;;;;1999.90;999.90;;;3.40;99.90;;;;;;5067268;28;20040;-82
2024/01/14 03:53:58;;;;;;;1999.90;999.90;;;3.30;99.90;;;;;;5051293;28;20037;-81
2024/01/14 03:56:23;;;;;;;1999.90;999.90;;;3.30;99.90;;;;;;5055209;28;20044;-80
2024/01/14 03:58:49;;;;;;;1999.90;999.90;;;2.90;99.90;;;;;;5050246;28;20497;-80
2024/01/14 04:01:18;;;;;;;1999.90;999.90;;;3.30;99.90;;;;;;5050274;28;20037;-81
2024/01/14 04:03:44;;;;;;;1999.90;999.90;;;3.30;99.90;;;;;;5069865;28;20074;-81
2024/01/14 04:06:09;;;;;;;1999.90;999.90;;;3.50;99.90;;;;;;5047424;28;20117;-81
2024/01/14 04:08:35;;;;;;;1999.90;999.90;;;3.30;99.90;;;;;;5047168;28;20059;-81
2024/01/14 04:11:01;;;;;;;1999.90;999.90;;;3.60;99.90;;;;;;5067153;28;20029;-82
2024/01/14 04:13:27;;;;;;;1999.90;999.90;;;3.30;99.90;;;;;;5069705;28;20407;-81
2024/01/14 04:15:55;;;;;;;1999.90;999.90;;;3.20;99.90;;;;;;5048976;28;20064;-81
2024/01/14 04:18:21;;;;;;;1999.90;999.90;;;3.80;99.90;;;;;;5046104;28;20545;-79
2024/01/14 04:20:47;;;;;;;1999.90;999.90;;;3.10;99.90;;;;;;5066807;28;20037;-78
2024/01/14 04:23:12;;;;;;;1999.90;999.90;;;3.00;99.90;;;;;;5065379;28;20052;-81
2024/01/14 04:25:38;;;;;;;1999.90;999.90;;;4.10;99.90;;;;;;5066487;28;20052;-81
2024/01/14 04:28:04;;;;;;;1999.90;999.90;;;2.90;99.90;;;;;;5056421;28;20040;-81
2024/01/14 04:30:29;;;;;;;1999.90;999.90;;;2.90;99.90;;;;;;5064317;28;20079;-80
2024/01/14 04:32:55;;;;;;;1999.90;999.90;;;2.00;99.90;;;;;;5067213;28;20041;-81
2024/01/14 04:35:21;;;;;;;1999.90;999.90;;;2.80;99.90;;;;;;5066085;28;20566;-80
2024/01/14 04:37:47;;;;;;;1999.90;999.90;;;2.70;99.90;;;;;;5066744;28;20124;-81
2024/01/14 04:40:13;;;;;;;1999.90;999.90;;;2.70;99.90;;;;;;5065089;28;20473;-80
2024/01/14 04:42:38;;;;;;;1999.90;999.90;;;2.60;99.90;;;;;;5052901;28;20100;-81
2024/01/14 04:45:06;;;;;;;1999.90;999.90;;;2.70;99.90;;;;;;5054401;28;20044;-81
2024/01/14 04:47:31;;;;;;;1999.90;999.90;;;2.60;99.90;;;;;;5050736;28;20093;-81
2024/01/14 04:49:57;;;;;;;1999.90;999.90;;;2.60;99.90;;;;;;5065768;28;20036;-81
2024/01/14 04:52:22;;;;;;;1999.90;999.90;;;2.60;99.90;;;;;;5046575;28;20036;-81
2024/01/14 04:54:49;;;;;;;1999.90;999.90;;;2.50;99.90;;;;;;5063755;28;20041;-81
2024/01/14 04:57:18;;;;;;;1999.90;999.90;;;2.50;99.90;;;;;;5074316;28;20561;-81
2024/01/14 04:59:44;;;;;;;1999.90;999.90;;;2.50;99.90;;;;;;5069659;28;20075;-82
2024/01/14 05:02:10;;;;;;;1999.90;999.90;;;2.60;99.90;;;;;;5049529;28;20040;-81
2024/01/14 05:04:35;;;;;;;1999.90;999.90;;;3.50;99.90;;;;;;5067477;28;20045;-81
2024/01/14 05:07:01;;;;;;;1999.90;999.90;;;2.40;99.90;;;;;;5054037;28;20404;-81
2024/01/14 05:09:26;;;;;;;1999.90;999.90;;;2.40;99.90;;;;;;5054970;28;20114;-81
2024/01/14 05:11:52;;;;;;;1999.90;999.90;;;2.40;99.90;;;;;;5051274;28;20037;-81
2024/01/14 05:14:21;;;;;;;1999.90;999.90;;;2.40;99.90;;;;;;5078905;28;20048;-81
2024/01/14 05:16:46;;;;;;;1999.90;999.90;;;2.40;99.90;;;;;;5070786;28;20037;-81
2024/01/14 05:19:12;;;;;;;1999.90;999.90;;;2.40;99.90;;;;;;5052657;28;20041;-81
2024/01/14 05:21:37;;;;;;;1999.90;999.90;;;2.40;99.90;;;;;;5066800;28;20043;-81
2024/01/14 05:24:03;;;;;;;1999.90;999.90;;;2.40;99.90;;;;;;5053400;28;20056;-81
2024/01/14 05:26:29;;;;;;;1999.90;999.90;;;2.30;99.90;;;;;;5049001;28;20037;-81
2024/01/14 05:28:59;;;;;;;1999.90;999.90;;;2.20;99.90;;;;;;5073012;28;20386;-81
2024/01/14 05:31:25;;;;;;;1999.90;999.90;;;2.30;99.90;;;;;;5057503;28;20048;-81
2024/01/14 05:33:50;;;;;;;1999.90;999.90;;;2.30;99.90;;;;;;5070338;28;20047;-81
2024/01/14 05:36:16;;;;;;;1999.90;999.90;;;2.40;99.90;;;;;;5050788;28;20033;-81
2024/01/14 05:38:43;;;;;;;1999.90;999.90;;;2.40;99.90;;;;;;5073552;28;20519;-81
2024/01/14 05:41:12;;;;;;;1999.90;999.90;;;2.20;99.90;;;;;;5066091;28;20540;-81
2024/01/14 05:43:38;;;;;;;1999.90;999.90;;;2.10;99.90;;;;;;5053301;28;20040;-81
2024/01/14 05:46:04;;;;;;;1999.90;999.90;;;2.10;99.90;;;;;;5040543;28;20045;-81
2024/01/14 05:48:30;;;;;;;1999.90;999.90;;;2.10;99.90;;;;;;5069129;28;20052;-82
2024/01/14 05:50:55;;;;;;;1999.90;999.90;;;2.20;99.90;;;;;;5073615;28;20033;-81
2024/01/14 05:53:22;;;;;;;1999.90;999.90;;;2.20;99.90;;;;;;5052690;28;20509;-81
2024/01/14 05:55:48;;;;;;;1999.90;999.90;;;2.20;99.90;;;;;;5065413;28;20063;-81
2024/01/14 05:58:13;;;;;;;1999.90;999.90;;;2.20;99.90;;;;;;5058130;28;20496;-81
2024/01/14 06:00:39;;;;;;;1999.90;999.90;;;2.20;99.90;;;;;;5072808;28;20051;-81
2024/01/14 06:03:05;;;;;;;1999.90;999.90;;;2.30;99.90;;;;;;5073113;28;20041;-81
2024/01/14 06:05:30;;;;;;;1999.90;999.90;;;2.30;99.90;;;;;;5070967;28;20500;-81
2024/01/14 06:07:56;;;;;;;1999.90;999.90;;;3.40;99.90;;;;;;5067092;28;20044;-81
2024/01/14 06:10:22;;;;;;;1999.90;999.90;;;2.40;99.90;;;;;;5051456;28;20064;-81
2024/01/14 06:12:47;;;;;;;1999.90;999.90;;;2.40;99.90;;;;;;5058271;28;20497;-81
2024/01/14 06:15:13;;;;;;;1999.90;999.90;;;2.40;99.90;;;;;;5072684;28;20040;-81
2024/01/14 06:17:38;;;;;;;1999.90;999.90;;;2.50;99.90;;;;;;5065834;28;20037;-81
2024/01/14 06:20:06;;;;;;;1999.90;999.90;;;3.60;99.90;;;;;;5058047;28;20111;-81
2024/01/14 06:22:31;;;;;;;1999.90;999.90;;;2.50;99.90;;;;;;5072690;28;20043;-82
2024/01/14 06:24:57;;;;;;;1999.90;999.90;;;2.50;99.90;;;;;;5064162;28;20132;-81
2024/01/14 06:27:23;;;;;;;1999.90;999.90;;;3.60;99.90;;;;;;5056479;28;20047;-81
2024/01/14 06:29:50;;;;;;;1999.90;999.90;;;3.10;99.90;;;;;;5060357;28;20040;-81
2024/01/14 06:32:16;;;;;;;1999.90;999.90;;;3.20;99.90;;;;;;5049067;28;20041;-80
2024/01/14 06:34:42;;;;;;;1999.90;999.90;;;2.40;99.90;;;;;;5068940;28;20043;-81
2024/01/14 06:37:07;;;;;;;1999.90;999.90;;;3.40;99.90;;;;;;5054417;28;20033;-81
2024/01/14 06:39:33;;;;;;;1999.90;999.90;;;2.40;99.90;;;;;;5064688;28;20535;-81
2024/01/14 06:41:59;;;;;;;1999.90;999.90;;;2.40;99.90;;;;;;5051552;28;20125;-80
2024/01/14 06:44:25;;;;;;;1999.90;999.90;;;3.20;99.90;;;;;;5073720;28;20047;-80
2024/01/14 06:46:51;;;;;;;1999.90;999.90;;;2.30;99.90;;;;;;5055704;28;20066;-80
2024/01/14 06:49:17;;;;;;;1999.90;999.90;;;2.20;99.90;;;;;;5049894;28;20379;-82
2024/01/14 06:51:46;;;;;;;1999.90;999.90;;;2.10;99.90;;;;;;5070373;28;20040;-81
2024/01/14 06:54:12;;;;;;;1999.90;999.90;;;2.10;99.90;;;;;;5068116;28;20078;-81
2024/01/14 06:56:47;;;;;;;1999.90;999.90;;;2.10;99.90;;;;;;5071804;28;20496;-81
2024/01/14 06:59:24;;;;;;;1999.90;999.90;;;2.00;99.90;;;;;;5065813;28;20397;-81
2024/01/14 07:01:50;;;;;;;1999.90;999.90;;;2.00;99.90;;;;;;5054309;28;20036;-80
2024/01/14 07:04:16;;;;;;;1999.90;999.90;;;3.30;99.90;;;;;;5065089;28;20125;-81
2024/01/14 07:06:41;;;;;;;1999.90;999.90;;;3.30;99.90;;;;;;5050468;28;20063;-82
2024/01/14 07:09:10;;;;;;;1999.90;999.90;;;3.00;99.90;;;;;;5066919;28;20123;-81
2024/01/14 07:11:36;;;;;;;1999.90;999.90;;;3.10;99.90;;;;;;5048665;28;20033;-80
2024/01/14 07:14:02;;;;;;;1999.90;999.90;;;2.20;99.90;;;;;;5048451;28;20043;-80
2024/01/14 07:16:29;;;;;;;1999.90;999.90;;;3.10;99.90;;;;;;5054263;28;20123;-81
2024/01/14 07:18:55;;;;;;;1999.90;999.90;;;2.30;99.90;;;;;;5050195;28;20516;-80
2024/01/14 07:21:22;;;;;;;1999.90;999.90;;;2.40;99.90;;;;;;5047579;28;20049;-80
2024/01/14 07:23:48;;;;;;;1999.90;999.90;;;2.40;99.90;;;;;;5063642;28;20127;-81
2024/01/14 07:26:16;;;;;;;1999.90;999.90;;;2.40;99.90;;;;;;5061298;28;20068;-81
2024/01/14 07:28:42;;;;;;;1999.90;999.90;;;2.40;99.90;;;;;;5049867;28;20041;-81
2024/01/14 07:31:09;;;;;;;1999.90;999.90;;;2.40;99.90;;;;;;5054193;28;20051;-80
2024/01/14 07:33:35;;;;;;;1999.90;999.90;;;2.70;99.90;;;;;;5046922;28;20040;-80
2024/01/14 07:36:01;;;;;;;1999.90;999.90;;;2.30;99.90;;;;;;5068148;28;20061;-82
2024/01/14 07:38:27;;;;;;;1999.90;999.90;;;2.60;99.90;;;;;;5055866;28;20044;-81
2024/01/14 07:40:53;;;;;;;1999.90;999.90;;;1.90;99.90;;;;;;5051239;28;20112;-81
2024/01/14 07:43:19;;;;;;;1999.90;999.90;;;3.60;99.90;;;;;;5051904;28;20041;-81
2024/01/14 07:45:46;;;;;;;1999.90;999.90;;;3.10;99.90;;;;;;5071903;28;20064;-81
2024/01/14 07:48:12;;;;;;;1999.90;999.90;;;1.40;99.90;;;;;;5076354;28;20132;-81
2024/01/14 07:50:41;;;;;;;1999.90;999.90;;;2.00;99.90;;;;;;5051764;28;20412;-81
2024/01/14 07:53:09;;;;;;;1999.90;999.90;;;2.10;99.90;;;;;;5066623;28;20537;-81
2024/01/14 07:55:35;;;;;;;1999.90;999.90;;;3.30;99.90;;;;;;5052822;28;20041;-81
2024/01/14 07:58:01;;;;;;;1999.90;999.90;;;2.90;99.90;;;;;;5046578;28;20037;-81
2024/01/14 08:00:27;;;;;;;1999.90;999.90;;;3.00;99.90;;;;;;5050781;28;20067;-81
2024/01/14 08:02:54;;;;;;;1999.90;999.90;;;2.10;99.90;;;;;;5063973;28;20037;-81
2024/01/14 08:05:20;;;;;;;1999.90;999.90;;;2.00;99.90;;;;;;5068358;28;20045;-81
2024/01/14 08:07:47;;;;;;;1999.90;999.90;;;3.50;99.90;;;;;;5067495;28;20506;-82
2024/01/14 08:10:13;;;;;;;1999.90;999.90;;;3.30;99.90;;;;;;5066515;28;20489;-81
2024/01/14 08:12:39;;;;;;;1999.90;999.90;;;2.30;99.90;;;;;;5066492;28;20052;-81
2024/01/14 08:15:05;;;;;;;1999.90;999.90;;;1.40;99.90;;;;;;5071328;28;20063;-81
2024/01/14 08:17:31;;;;;;;1999.90;999.90;;;2.00;99.90;;;;;;5072082;28;20092;-82
2024/01/14 08:19:57;;;;;;;1999.90;999.90;;;1.50;99.90;;;;;;5068367;28;20080;-81
2024/01/14 08:22:23;;;;;;;1999.90;999.90;;;3.80;99.90;;;;;;5043673;28;20049;-81
2024/01/14 08:24:49;;;;;;;1999.90;999.90;;;2.40;99.90;;;;;;5053010;28;20049;-81
2024/01/14 08:27:15;;;;;;;1999.90;999.90;;;2.50;99.90;;;;;;5066792;28;20044;-81
2024/01/14 08:29:41;;;;;;;1999.90;999.90;;;2.50;99.90;;;;;;5048202;28;20522;-81
2024/01/14 08:32:07;;;;;;;1999.90;999.90;;;3.80;99.90;;;;;;5070903;28;20045;-82
2024/01/14 08:34:33;;;;;;;1999.90;999.90;;;1.90;99.90;;;;;;5051127;28;20036;-81
2024/01/14 08:36:59;;;;;;;1999.90;999.90;;;3.40;99.90;;;;;;5048256;28;20117;-81
2024/01/14 08:39:25;;;;;;;1999.90;999.90;;;3.80;99.90;;;;;;5055437;28;20040;-80
2024/01/14 08:41:51;;;;;;;1999.90;999.90;;;2.40;99.90;;;;;;5079094;28;20382;-81
2024/01/14 08:44:17;;;;;;;1999.90;999.90;;;1.60;99.90;;;;;;5070091;28;20422;-81
2024/01/14 08:46:47;;;;;;;1999.90;999.90;;;3.80;99.90;;;;;;5055198;28;20036;-79
2024/01/14 08:49:17;;;;;;;1999.90;999.90;;;3.90;99.90;;;;;;5052057;28;20029;-81
2024/01/14 08:51:43;;;;;;;1999.90;999.90;;;2.40;99.90;;;;;;5071996;28;20043;-81
2024/01/14 08:54:09;;;;;;;1999.90;999.90;;;2.40;99.90;;;;;;5060737;28;20040;-81
2024/01/14 08:56:35;;;;;;;1999.90;999.90;;;2.40;99.90;;;;;;5072423;28;20044;-81
2024/01/14 08:59:01;;;;;;;1999.90;999.90;;;2.80;99.90;;;;;;5052985;28;20037;-81
2024/01/14 09:01:27;;;;;;;1999.90;999.90;;;2.30;99.90;;;;;;5068077;28;20043;-82
2024/01/14 09:03:53;;;;;;;1999.90;999.90;;;3.00;99.90;;;;;;5055440;28;20059;-81
2024/01/14 09:06:20;;;;;;;1999.90;999.90;;;3.40;99.90;;;;;;5068496;28;20041;-81
2024/01/14 09:08:46;;;;;;;1999.90;999.90;;;1.80;99.90;;;;;;5071140;28;20029;-81
2024/01/14 09:11:13;;;;;;;1999.90;999.90;;;2.60;99.90;;;;;;5071466;28;20035;-81
2024/01/14 09:13:41;;;;;;;1999.90;999.90;;;4.00;99.90;;;;;;5070908;28;20174;-81
2024/01/14 09:16:08;;;;;;;1999.90;999.90;;;2.80;99.90;;;;;;5056569;28;20044;-81
2024/01/14 09:18:34;;;;;;;1999.90;999.90;;;2.80;99.90;;;;;;5069618;28;20478;-81
2024/01/14 09:21:03;;;;;;;1999.90;999.90;;;2.80;99.90;;;;;;5054521;28;20072;-81
2024/01/14 09:23:29;;;;;;;1999.90;999.90;;;2.80;99.90;;;;;;5057259;28;20041;-81
2024/01/14 09:25:58;;;;;;;1999.90;999.90;;;4.00;99.90;;;;;;5055099;28;20072;-81
2024/01/14 09:28:24;;;;;;;1999.90;999.90;;;3.80;99.90;;;;;;5050455;28;20099;-81
2024/01/14 09:30:51;;;;;;;1999.90;999.90;;;2.70;99.90;;;;;;5054899;28;20040;-82
2024/01/14 09:33:17;;;;;;;1999.90;999.90;;;2.80;99.90;;;;;;5058037;28;20097;-82
2024/01/14 09:35:43;;;;;;;1999.90;999.90;;;4.00;99.90;;;;;;5057859;28;20083;-81
2024/01/14 09:38:09;;;;;;;1999.90;999.90;;;2.80;99.90;;;;;;5065151;28;20056;-81
2024/01/14 09:40:36;;;;;;;1999.90;999.90;;;1.90;99.90;;;;;;5050399;28;20056;-81
2024/01/14 09:43:13;;;;;;;1999.90;999.90;;;3.60;99.90;;;;;;5067888;28;20044;-81
2024/01/14 09:45:40;;;;;;;1999.90;999.90;;;2.20;99.90;;;;;;5051405;28;20184;-81
2024/01/14 09:48:08;;;;;;;1999.90;999.90;;;4.00;99.90;;;;;;5047758;28;20041;-81
2024/01/14 09:50:36;;;;;;;1999.90;999.90;;;2.90;99.90;;;;;;5073568;28;20044;-81
2024/01/14 09:53:09;;;;;;;1999.90;999.90;;;3.60;99.90;;;;;;5052971;28;20498;-81
2024/01/14 09:55:36;;;;;;;1999.90;999.90;;;2.90;99.90;;;;;;5066660;28;20040;-81
2024/01/14 09:58:04;;;;;;;1999.90;999.90;;;4.00;99.90;;;;;;5058267;28;20032;-81
2024/01/14 10:00:30;;;;;;;1999.90;999.90;;;3.00;99.90;;;;;;5054897;28;20056;-81
2024/01/14 10:02:56;;;;;;;1999.90;999.90;;;4.40;99.90;;;;;;5053258;28;20508;-81
2024/01/14 10:05:22;;;;;;;1999.90;999.90;;;4.20;99.90;;;;;;5072337;28;20041;-78
2024/01/14 10:07:48;;;;;;;1999.90;999.90;;;4.40;99.90;;;;;;5045671;28;20048;-79
2024/01/14 10:10:14;;;;;;;1999.90;999.90;;;4.30;99.90;;;;;;5049472;28;20040;-79
2024/01/14 10:12:40;;;;;;;1999.90;999.90;;;3.20;99.90;;;;;;5050749;28;20024;-79
2024/01/14 10:15:07;;;;;;;1999.90;999.90;;;4.00;99.90;;;;;;5050451;28;20062;-79
2024/01/14 10:17:33;;;;;;;1999.90;999.90;;;3.20;99.90;;;;;;5053455;28;20048;-78
2024/01/14 10:19:59;;;;;;;1999.90;999.90;;;3.20;99.90;;;;;;5075556;28;20036;-79
2024/01/14 10:22:28;;;;;;;1999.90;999.90;;;3.30;99.90;;;;;;5071731;28;20512;-79
2024/01/14 10:24:55;;;;;;;1999.90;999.90;;;3.30;99.90;;;;;;5065238;28;20040;-79
2024/01/14 10:27:22;;;;;;;1999.90;999.90;;;3.40;99.90;;;;;;5047427;28;20040;-79
2024/01/14 10:29:49;;;;;;;1999.90;999.90;;;3.40;99.90;;;;;;5049515;28;20070;-78
2024/01/14 10:32:15;;;;;;;1999.90;999.90;;;3.40;99.90;;;;;;5060558;28;20074;-79
2024/01/14 10:34:41;;;;;;;1999.90;999.90;;;3.50;99.90;;;;;;5067801;28;20044;-78
2024/01/14 10:37:07;;;;;;;1999.90;999.90;;;3.50;99.90;;;;;;5031161;28;20037;-79
2024/01/14 10:39:34;;;;;;;1999.90;999.90;;;3.50;99.90;;;;;;5073866;28;20044;-79
2024/01/14 10:42:01;;;;;;;1999.90;999.90;;;3.50;99.90;;;;;;5063303;28;20063;-81
2024/01/14 10:44:28;;;;;;;1999.90;999.90;;;3.50;99.90;;;;;;5067992;28;20052;-80
2024/01/14 10:46:56;;;;;;;1999.90;999.90;;;4.40;99.90;;;;;;5072941;28;20043;-80
2024/01/14 10:49:25;;;;;;;1999.90;999.90;;;4.70;99.90;;;;;;5053896;28;20090;-80
2024/01/14 10:52:21;;;;;;;1999.90;999.90;;;4.00;99.90;;;;;;5052387;28;20041;-81
2024/01/14 10:54:54;;;;;;;1999.90;999.90;;;4.70;99.90;;;;;;5075503;28;20104;-80
2024/01/14 10:57:29;;;;;;;;;;;3.00;99.90;;;;;;5075789;28;20032;-81
2024/01/14 11:00:05;;;;;;;1999.90;999.90;;;3.40;99.90;;;;;;5064487;28;19966;-80
2024/01/14 11:02:33;;;;;;;1999.90;999.90;;;4.90;99.90;;;;;;5070999;28;20060;-80
2024/01/14 11:04:59;;;;;;;1999.90;999.90;;;4.80;99.90;;;;;;5044920;28;20159;-81
2024/01/14 11:07:25;;;;;;;1999.90;999.90;;;3.60;99.90;;;;;;5051672;28;20163;-80
2024/01/14 11:09:53;;;;;;;1999.90;999.90;;;4.70;99.90;;;;;;5053778;28;20476;-81
2024/01/14 11:12:27;;;;;;;1999.90;999.90;;;3.20;99.90;;;;;;5052610;28;20041;-80
2024/01/14 11:15:01;;;;;;;1999.90;999.90;;;4.90;99.90;;;;;;5056871;28;20067;-80
2024/01/14 11:17:39;;;;;;;;;;;4.60;99.90;;;;;;5069595;28;20309;-81
2024/01/14 11:20:06;;;;;;;1999.90;999.90;;;3.80;99.90;;;;;;5061593;28;20384;-81
2024/01/14 11:22:32;;;;;;;1999.90;999.90;;;4.00;99.90;;;;;;5055735;28;20044;-81
2024/01/14 11:24:59;;;;;;;1999.90;999.90;;;4.10;99.90;;;;;;5076297;28;20116;-81
2024/01/14 11:27:25;;;;;;;1999.90;999.90;;;4.20;99.90;;;;;;5068592;28;20069;-80
2024/01/14 11:29:52;;;;;;;1999.90;999.90;;;4.90;99.90;;;;;;5048705;28;20033;-81
2024/01/14 11:32:21;;;;;;;1999.90;999.90;;;4.30;99.90;;;;;;5048256;28;20041;-81
2024/01/14 11:34:46;;;;;;;1999.90;999.90;;;4.80;99.90;;;;;;5073278;28;20055;-81
2024/01/14 11:37:32;;;;;;;1999.90;999.90;;;5.10;99.90;;;;;;5056876;28;20037;-81
2024/01/14 11:40:16;;;;;;;1999.90;999.90;;;4.40;99.90;;;;;;5075864;28;20672;-81
2024/01/14 11:42:50;;;;;;;1999.90;999.90;;;4.50;99.90;;;;;;5073219;28;20036;-80
2024/01/14 11:45:27;;;;;;;1999.90;999.90;;;4.50;99.90;;;;;;5054239;28;20033;-80
2024/01/14 11:47:56;;;;;;;1999.90;999.90;;;4.50;99.90;;;;;;5068037;28;20040;-81
2024/01/14 11:50:24;;;;;;;1999.90;999.90;;;4.40;99.90;;;;;;5053752;28;20127;-81
2024/01/14 11:52:56;;;;;;;1999.90;999.90;;;4.60;99.90;;;;;;5066809;28;20047;-80
2024/01/14 11:55:26;;;;;;;1999.90;999.90;;;4.90;99.90;;;;;;5057307;28;20047;-82
2024/01/14 11:57:53;;;;;;;1999.90;999.90;;;4.50;99.90;;;;;;5054800;28;20040;-80
2024/01/14 12:00:24;;;;;;;1999.90;999.90;;;4.50;99.90;;;;;;5058697;28;20036;-80
2024/01/14 12:03:09;;;;;;;1999.90;999.90;;;4.50;99.90;;;;;;5059204;28;20036;-81
2024/01/14 12:05:35;;;;;;;1999.90;999.90;;;4.40;99.90;;;;;;5065167;28;20032;-81